sensor_id;sensor_type;location;lat;lon;timestamp;P1;durP1;ratioP1;P2;durP2;ratioP2
10347;SDS011;5220;43.192;23.284;2023-06-26T00:01:42;17.05;;;11.38;;
10347;SDS011;5220;43.192;23.284;2023-06-26T00:04:09;16.92;;;10.73;;
10347;SDS011;5220;43.192;23.284;2023-06-26T00:06:39;14.80;;;11.60;;
10347;SDS011;5220;43.192;23.284;2023-06-26T00:09:06;18.73;;;10.63;;
10347;SDS011;5220;43.192;23.284;2023-06-26T00:11:33;10.85;;;9.75;;
10347;SDS011;5220;43.192;23.284;2023-06-26T00:14:01;16.20;;;9.98;;
10347;SDS011;5220;43.192;23.284;2023-06-26T00:16:28;14.38;;;9.73;;
10347;SDS011;5220;43.192;23.284;2023-06-26T00:18:56;12.90;;;9.20;;
10347;SDS011;5220;43.192;23.284;2023-06-26T00:21:23;15.35;;;10.15;;
10347;SDS011;5220;43.192;23.284;2023-06-26T00:23:50;18.40;;;9.77;;
10347;SDS011;5220;43.192;23.284;2023-06-26T00:26:17;14.82;;;8.98;;
10347;SDS011;5220;43.192;23.284;2023-06-26T00:28:44;12.50;;;9.68;;
10347;SDS011;5220;43.192;23.284;2023-06-26T00:31:12;11.23;;;8.60;;
10347;SDS011;5220;43.192;23.284;2023-06-26T00:33:38;13.95;;;9.05;;
10347;SDS011;5220;43.192;23.284;2023-06-26T00:36:05;12.57;;;9.00;;
10347;SDS011;5220;43.192;23.284;2023-06-26T00:38:32;15.45;;;8.98;;
10347;SDS011;5220;43.192;23.284;2023-06-26T00:40:58;9.48;;;8.52;;
10347;SDS011;5220;43.192;23.284;2023-06-26T00:43:25;10.60;;;9.50;;
10347;SDS011;5220;43.192;23.284;2023-06-26T00:45:52;10.55;;;9.43;;
10347;SDS011;5220;43.192;23.284;2023-06-26T00:48:20;12.65;;;8.73;;
10347;SDS011;5220;43.192;23.284;2023-06-26T00:50:47;13.65;;;9.02;;
10347;SDS011;5220;43.192;23.284;2023-06-26T00:53:14;12.32;;;9.15;;
10347;SDS011;5220;43.192;23.284;2023-06-26T00:55:40;13.55;;;8.57;;
10347;SDS011;5220;43.192;23.284;2023-06-26T00:58:07;12.80;;;9.73;;
10347;SDS011;5220;43.192;23.284;2023-06-26T01:00:34;9.43;;;8.48;;
10347;SDS011;5220;43.192;23.284;2023-06-26T01:03:00;13.45;;;9.65;;
10347;SDS011;5220;43.192;23.284;2023-06-26T01:05:29;16.05;;;9.68;;
10347;SDS011;5220;43.192;23.284;2023-06-26T01:07:56;13.10;;;8.73;;
10347;SDS011;5220;43.192;23.284;2023-06-26T01:10:23;11.75;;;8.35;;
10347;SDS011;5220;43.192;23.284;2023-06-26T01:12:52;17.58;;;9.50;;
10347;SDS011;5220;43.192;23.284;2023-06-26T01:15:19;10.18;;;8.95;;
10347;SDS011;5220;43.192;23.284;2023-06-26T01:17:46;13.13;;;9.32;;
10347;SDS011;5220;43.192;23.284;2023-06-26T01:20:13;10.25;;;8.63;;
10347;SDS011;5220;43.192;23.284;2023-06-26T01:22:45;14.18;;;9.23;;
10347;SDS011;5220;43.192;23.284;2023-06-26T01:25:20;14.02;;;9.63;;
10347;SDS011;5220;43.192;23.284;2023-06-26T01:27:57;11.45;;;8.68;;
10347;SDS011;5220;43.192;23.284;2023-06-26T01:30:24;11.82;;;8.45;;
10347;SDS011;5220;43.192;23.284;2023-06-26T01:32:52;15.45;;;8.63;;
10347;SDS011;5220;43.192;23.284;2023-06-26T01:35:18;13.45;;;9.25;;
10347;SDS011;5220;43.192;23.284;2023-06-26T01:37:46;13.57;;;9.27;;
10347;SDS011;5220;43.192;23.284;2023-06-26T01:40:12;14.90;;;8.60;;
10347;SDS011;5220;43.192;23.284;2023-06-26T01:42:39;12.88;;;9.15;;
10347;SDS011;5220;43.192;23.284;2023-06-26T01:45:10;11.73;;;8.48;;
10347;SDS011;5220;43.192;23.284;2023-06-26T01:47:42;11.88;;;9.68;;
10347;SDS011;5220;43.192;23.284;2023-06-26T01:50:16;14.48;;;9.48;;
10347;SDS011;5220;43.192;23.284;2023-06-26T01:52:46;15.73;;;8.85;;
10347;SDS011;5220;43.192;23.284;2023-06-26T01:55:31;13.52;;;8.88;;
10347;SDS011;5220;43.192;23.284;2023-06-26T01:58:01;14.52;;;9.13;;
10347;SDS011;5220;43.192;23.284;2023-06-26T02:00:29;13.82;;;9.88;;
10347;SDS011;5220;43.192;23.284;2023-06-26T02:02:57;13.18;;;9.25;;
10347;SDS011;5220;43.192;23.284;2023-06-26T02:05:24;10.93;;;8.90;;
10347;SDS011;5220;43.192;23.284;2023-06-26T02:07:50;12.73;;;9.27;;
10347;SDS011;5220;43.192;23.284;2023-06-26T02:10:17;12.75;;;9.38;;
10347;SDS011;5220;43.192;23.284;2023-06-26T02:12:44;11.52;;;9.25;;
10347;SDS011;5220;43.192;23.284;2023-06-26T02:15:11;13.45;;;9.05;;
10347;SDS011;5220;43.192;23.284;2023-06-26T02:17:40;10.57;;;9.15;;
10347;SDS011;5220;43.192;23.284;2023-06-26T02:20:07;12.98;;;9.05;;
10347;SDS011;5220;43.192;23.284;2023-06-26T02:22:35;14.15;;;9.73;;
10347;SDS011;5220;43.192;23.284;2023-06-26T02:25:02;13.90;;;9.25;;
10347;SDS011;5220;43.192;23.284;2023-06-26T02:27:30;15.43;;;8.75;;
10347;SDS011;5220;43.192;23.284;2023-06-26T02:29:57;11.95;;;8.75;;
10347;SDS011;5220;43.192;23.284;2023-06-26T02:32:24;12.07;;;8.82;;
10347;SDS011;5220;43.192;23.284;2023-06-26T02:34:52;9.55;;;8.18;;
10347;SDS011;5220;43.192;23.284;2023-06-26T02:37:19;10.05;;;8.30;;
10347;SDS011;5220;43.192;23.284;2023-06-26T02:39:46;15.85;;;8.95;;
10347;SDS011;5220;43.192;23.284;2023-06-26T02:42:13;13.35;;;9.25;;
10347;SDS011;5220;43.192;23.284;2023-06-26T02:44:40;11.32;;;8.65;;
10347;SDS011;5220;43.192;23.284;2023-06-26T02:47:07;10.32;;;8.02;;
10347;SDS011;5220;43.192;23.284;2023-06-26T02:49:34;12.07;;;8.38;;
10347;SDS011;5220;43.192;23.284;2023-06-26T02:52:02;10.88;;;8.60;;
10347;SDS011;5220;43.192;23.284;2023-06-26T02:54:30;11.77;;;8.88;;
10347;SDS011;5220;43.192;23.284;2023-06-26T02:56:57;13.30;;;8.43;;
10347;SDS011;5220;43.192;23.284;2023-06-26T02:59:24;15.27;;;7.85;;
10347;SDS011;5220;43.192;23.284;2023-06-26T03:01:52;11.88;;;8.07;;
10347;SDS011;5220;43.192;23.284;2023-06-26T03:04:19;13.52;;;8.75;;
10347;SDS011;5220;43.192;23.284;2023-06-26T03:06:46;15.60;;;8.20;;
10347;SDS011;5220;43.192;23.284;2023-06-26T03:09:14;22.60;;;8.77;;
10347;SDS011;5220;43.192;23.284;2023-06-26T03:11:42;9.98;;;8.23;;
10347;SDS011;5220;43.192;23.284;2023-06-26T03:14:09;13.18;;;7.65;;
10347;SDS011;5220;43.192;23.284;2023-06-26T03:16:35;15.20;;;8.55;;
10347;SDS011;5220;43.192;23.284;2023-06-26T03:19:02;13.75;;;8.95;;
10347;SDS011;5220;43.192;23.284;2023-06-26T03:21:29;10.10;;;7.70;;
10347;SDS011;5220;43.192;23.284;2023-06-26T03:23:56;8.35;;;7.45;;
10347;SDS011;5220;43.192;23.284;2023-06-26T03:26:25;12.68;;;8.02;;
10347;SDS011;5220;43.192;23.284;2023-06-26T03:28:53;14.23;;;8.23;;
10347;SDS011;5220;43.192;23.284;2023-06-26T03:31:20;11.50;;;7.93;;
10347;SDS011;5220;43.192;23.284;2023-06-26T03:33:47;8.57;;;7.75;;
10347;SDS011;5220;43.192;23.284;2023-06-26T03:36:14;13.73;;;8.30;;
10347;SDS011;5220;43.192;23.284;2023-06-26T03:38:40;10.52;;;7.95;;
10347;SDS011;5220;43.192;23.284;2023-06-26T03:41:07;10.35;;;8.00;;
10347;SDS011;5220;43.192;23.284;2023-06-26T03:43:35;13.60;;;8.05;;
10347;SDS011;5220;43.192;23.284;2023-06-26T03:46:02;13.07;;;8.85;;
10347;SDS011;5220;43.192;23.284;2023-06-26T03:48:29;10.88;;;9.20;;
10347;SDS011;5220;43.192;23.284;2023-06-26T03:50:55;12.60;;;10.77;;
10347;SDS011;5220;43.192;23.284;2023-06-26T03:53:22;15.02;;;10.68;;
10347;SDS011;5220;43.192;23.284;2023-06-26T03:55:49;11.70;;;9.73;;
10347;SDS011;5220;43.192;23.284;2023-06-26T03:58:16;14.63;;;10.05;;
10347;SDS011;5220;43.192;23.284;2023-06-26T04:00:44;9.73;;;8.02;;
10347;SDS011;5220;43.192;23.284;2023-06-26T04:03:12;12.90;;;7.25;;
10347;SDS011;5220;43.192;23.284;2023-06-26T04:05:39;11.13;;;7.65;;
10347;SDS011;5220;43.192;23.284;2023-06-26T04:08:05;11.10;;;7.85;;
10347;SDS011;5220;43.192;23.284;2023-06-26T04:10:32;13.73;;;7.95;;
10347;SDS011;5220;43.192;23.284;2023-06-26T04:12:59;15.35;;;7.35;;
10347;SDS011;5220;43.192;23.284;2023-06-26T04:15:25;10.13;;;7.68;;
10347;SDS011;5220;43.192;23.284;2023-06-26T04:17:53;8.73;;;7.32;;
10347;SDS011;5220;43.192;23.284;2023-06-26T04:20:20;12.68;;;7.53;;
10347;SDS011;5220;43.192;23.284;2023-06-26T04:22:47;11.55;;;8.27;;
10347;SDS011;5220;43.192;23.284;2023-06-26T04:25:13;12.55;;;7.03;;
10347;SDS011;5220;43.192;23.284;2023-06-26T04:27:40;9.48;;;7.78;;
10347;SDS011;5220;43.192;23.284;2023-06-26T04:30:07;10.90;;;6.93;;
10347;SDS011;5220;43.192;23.284;2023-06-26T04:32:35;9.68;;;7.55;;
10347;SDS011;5220;43.192;23.284;2023-06-26T04:35:03;7.55;;;6.85;;
10347;SDS011;5220;43.192;23.284;2023-06-26T04:37:30;13.02;;;7.20;;
10347;SDS011;5220;43.192;23.284;2023-06-26T04:39:57;13.55;;;7.57;;
10347;SDS011;5220;43.192;23.284;2023-06-26T04:42:23;12.63;;;8.23;;
10347;SDS011;5220;43.192;23.284;2023-06-26T04:44:50;10.32;;;9.32;;
10347;SDS011;5220;43.192;23.284;2023-06-26T04:47:17;13.77;;;11.70;;
10347;SDS011;5220;43.192;23.284;2023-06-26T04:49:43;12.57;;;10.45;;
10347;SDS011;5220;43.192;23.284;2023-06-26T04:52:12;11.15;;;10.15;;
10347;SDS011;5220;43.192;23.284;2023-06-26T04:54:39;12.13;;;9.10;;
10347;SDS011;5220;43.192;23.284;2023-06-26T04:57:06;9.50;;;7.80;;
10347;SDS011;5220;43.192;23.284;2023-06-26T04:59:33;13.30;;;7.47;;
10347;SDS011;5220;43.192;23.284;2023-06-26T05:02:00;10.32;;;7.30;;
10347;SDS011;5220;43.192;23.284;2023-06-26T05:04:28;13.20;;;7.35;;
10347;SDS011;5220;43.192;23.284;2023-06-26T05:06:54;10.02;;;7.38;;
10347;SDS011;5220;43.192;23.284;2023-06-26T05:09:22;8.95;;;7.00;;
10347;SDS011;5220;43.192;23.284;2023-06-26T05:11:49;14.25;;;7.80;;
10347;SDS011;5220;43.192;23.284;2023-06-26T05:14:16;10.07;;;8.60;;
10347;SDS011;5220;43.192;23.284;2023-06-26T05:16:42;12.18;;;8.55;;
10347;SDS011;5220;43.192;23.284;2023-06-26T05:19:09;10.68;;;8.43;;
10347;SDS011;5220;43.192;23.284;2023-06-26T05:21:36;10.32;;;8.18;;
10347;SDS011;5220;43.192;23.284;2023-06-26T05:24:04;9.25;;;7.88;;
10347;SDS011;5220;43.192;23.284;2023-06-26T05:26:34;11.13;;;8.32;;
10347;SDS011;5220;43.192;23.284;2023-06-26T05:29:01;11.55;;;7.63;;
10347;SDS011;5220;43.192;23.284;2023-06-26T05:31:28;9.32;;;8.43;;
10347;SDS011;5220;43.192;23.284;2023-06-26T05:33:58;10.10;;;7.55;;
10347;SDS011;5220;43.192;23.284;2023-06-26T05:36:28;8.90;;;7.95;;
10347;SDS011;5220;43.192;23.284;2023-06-26T05:38:58;8.57;;;7.68;;
10347;SDS011;5220;43.192;23.284;2023-06-26T05:41:25;11.02;;;7.47;;
10347;SDS011;5220;43.192;23.284;2023-06-26T05:43:53;7.22;;;6.68;;
10347;SDS011;5220;43.192;23.284;2023-06-26T05:46:20;8.60;;;6.45;;
10347;SDS011;5220;43.192;23.284;2023-06-26T05:48:47;6.82;;;6.22;;
10347;SDS011;5220;43.192;23.284;2023-06-26T05:51:14;7.07;;;6.45;;
10347;SDS011;5220;43.192;23.284;2023-06-26T05:53:41;7.55;;;6.32;;
10347;SDS011;5220;43.192;23.284;2023-06-26T05:56:08;9.07;;;5.75;;
10347;SDS011;5220;43.192;23.284;2023-06-26T05:58:36;9.32;;;6.28;;
10347;SDS011;5220;43.192;23.284;2023-06-26T06:01:04;8.30;;;6.43;;
10347;SDS011;5220;43.192;23.284;2023-06-26T06:03:31;7.18;;;6.05;;
10347;SDS011;5220;43.192;23.284;2023-06-26T06:05:58;6.47;;;5.93;;
10347;SDS011;5220;43.192;23.284;2023-06-26T06:08:25;8.60;;;6.97;;
10347;SDS011;5220;43.192;23.284;2023-06-26T06:10:52;8.98;;;6.65;;
10347;SDS011;5220;43.192;23.284;2023-06-26T06:13:19;6.80;;;5.97;;
10347;SDS011;5220;43.192;23.284;2023-06-26T06:15:46;7.07;;;5.97;;
10347;SDS011;5220;43.192;23.284;2023-06-26T06:18:14;7.63;;;6.13;;
10347;SDS011;5220;43.192;23.284;2023-06-26T06:20:40;8.75;;;7.20;;
10347;SDS011;5220;43.192;23.284;2023-06-26T06:23:07;7.05;;;6.45;;
10347;SDS011;5220;43.192;23.284;2023-06-26T06:25:34;7.80;;;7.07;;
10347;SDS011;5220;43.192;23.284;2023-06-26T06:28:01;7.07;;;6.45;;
10347;SDS011;5220;43.192;23.284;2023-06-26T06:30:27;7.85;;;7.05;;
10347;SDS011;5220;43.192;23.284;2023-06-26T06:32:54;8.13;;;7.32;;
10347;SDS011;5220;43.192;23.284;2023-06-26T06:35:23;9.45;;;6.18;;
10347;SDS011;5220;43.192;23.284;2023-06-26T06:37:49;8.13;;;6.10;;
10347;SDS011;5220;43.192;23.284;2023-06-26T06:40:16;6.70;;;6.18;;
10347;SDS011;5220;43.192;23.284;2023-06-26T06:42:43;7.85;;;6.80;;
10347;SDS011;5220;43.192;23.284;2023-06-26T06:45:10;6.32;;;5.82;;
10347;SDS011;5220;43.192;23.284;2023-06-26T06:47:36;5.68;;;5.18;;
10347;SDS011;5220;43.192;23.284;2023-06-26T06:50:03;6.03;;;5.43;;
10347;SDS011;5220;43.192;23.284;2023-06-26T06:52:36;7.00;;;5.80;;
10347;SDS011;5220;43.192;23.284;2023-06-26T06:55:05;6.10;;;5.53;;
10347;SDS011;5220;43.192;23.284;2023-06-26T06:57:35;6.95;;;5.65;;
10347;SDS011;5220;43.192;23.284;2023-06-26T07:00:03;7.47;;;5.47;;
10347;SDS011;5220;43.192;23.284;2023-06-26T07:02:33;5.88;;;5.38;;
10347;SDS011;5220;43.192;23.284;2023-06-26T07:05:00;6.25;;;5.72;;
10347;SDS011;5220;43.192;23.284;2023-06-26T07:07:28;8.35;;;5.78;;
10347;SDS011;5220;43.192;23.284;2023-06-26T07:09:58;5.88;;;5.38;;
10347;SDS011;5220;43.192;23.284;2023-06-26T07:12:24;5.95;;;5.47;;
10347;SDS011;5220;43.192;23.284;2023-06-26T07:14:51;6.30;;;5.70;;
10347;SDS011;5220;43.192;23.284;2023-06-26T07:17:19;7.38;;;5.35;;
10347;SDS011;5220;43.192;23.284;2023-06-26T07:19:46;25.23;;;6.25;;
10347;SDS011;5220;43.192;23.284;2023-06-26T07:22:12;10.05;;;5.45;;
10347;SDS011;5220;43.192;23.284;2023-06-26T07:24:39;10.35;;;6.68;;
10347;SDS011;5220;43.192;23.284;2023-06-26T07:27:07;7.57;;;5.90;;
10347;SDS011;5220;43.192;23.284;2023-06-26T07:29:34;7.82;;;5.63;;
10347;SDS011;5220;43.192;23.284;2023-06-26T07:32:01;8.07;;;5.50;;
10347;SDS011;5220;43.192;23.284;2023-06-26T07:34:28;6.55;;;5.82;;
10347;SDS011;5220;43.192;23.284;2023-06-26T07:36:55;4.95;;;4.50;;
10347;SDS011;5220;43.192;23.284;2023-06-26T07:39:22;4.55;;;4.18;;
10347;SDS011;5220;43.192;23.284;2023-06-26T07:41:48;4.43;;;4.03;;
10347;SDS011;5220;43.192;23.284;2023-06-26T07:44:16;4.57;;;4.18;;
10347;SDS011;5220;43.192;23.284;2023-06-26T07:46:43;5.93;;;4.05;;
10347;SDS011;5220;43.192;23.284;2023-06-26T07:49:10;4.90;;;4.50;;
10347;SDS011;5220;43.192;23.284;2023-06-26T07:51:37;5.13;;;4.22;;
10347;SDS011;5220;43.192;23.284;2023-06-26T07:54:04;4.40;;;4.10;;
10347;SDS011;5220;43.192;23.284;2023-06-26T07:56:31;5.55;;;4.00;;
10347;SDS011;5220;43.192;23.284;2023-06-26T07:59:01;4.72;;;4.28;;
10347;SDS011;5220;43.192;23.284;2023-06-26T08:01:30;5.45;;;4.38;;
10347;SDS011;5220;43.192;23.284;2023-06-26T08:03:57;4.93;;;4.50;;
10347;SDS011;5220;43.192;23.284;2023-06-26T08:06:24;5.45;;;4.15;;
10347;SDS011;5220;43.192;23.284;2023-06-26T08:08:50;22.88;;;20.63;;
10347;SDS011;5220;43.192;23.284;2023-06-26T08:11:17;4.32;;;4.03;;
10347;SDS011;5220;43.192;23.284;2023-06-26T08:13:44;4.82;;;4.43;;
10347;SDS011;5220;43.192;23.284;2023-06-26T08:16:10;4.38;;;4.00;;
10347;SDS011;5220;43.192;23.284;2023-06-26T08:18:38;5.07;;;4.45;;
10347;SDS011;5220;43.192;23.284;2023-06-26T08:21:05;4.15;;;3.85;;
10347;SDS011;5220;43.192;23.284;2023-06-26T08:23:32;4.70;;;4.30;;
10347;SDS011;5220;43.192;23.284;2023-06-26T08:25:59;5.32;;;4.15;;
10347;SDS011;5220;43.192;23.284;2023-06-26T08:28:25;4.32;;;3.90;;
10347;SDS011;5220;43.192;23.284;2023-06-26T08:30:52;6.65;;;4.72;;
10347;SDS011;5220;43.192;23.284;2023-06-26T08:33:19;3.60;;;3.38;;
10347;SDS011;5220;43.192;23.284;2023-06-26T08:35:47;7.35;;;4.53;;
10347;SDS011;5220;43.192;23.284;2023-06-26T08:38:14;4.32;;;3.92;;
10347;SDS011;5220;43.192;23.284;2023-06-26T08:40:41;7.20;;;4.07;;
10347;SDS011;5220;43.192;23.284;2023-06-26T08:43:08;6.30;;;4.10;;
10347;SDS011;5220;43.192;23.284;2023-06-26T08:45:34;6.28;;;5.47;;
10347;SDS011;5220;43.192;23.284;2023-06-26T08:48:02;5.38;;;4.90;;
10347;SDS011;5220;43.192;23.284;2023-06-26T08:50:33;4.53;;;4.07;;
10347;SDS011;5220;43.192;23.284;2023-06-26T08:53:04;4.63;;;4.05;;
10347;SDS011;5220;43.192;23.284;2023-06-26T08:55:38;4.63;;;4.20;;
10347;SDS011;5220;43.192;23.284;2023-06-26T08:58:07;4.07;;;3.67;;
10347;SDS011;5220;43.192;23.284;2023-06-26T09:00:34;3.88;;;3.00;;
10347;SDS011;5220;43.192;23.284;2023-06-26T09:03:01;3.97;;;3.67;;
10347;SDS011;5220;43.192;23.284;2023-06-26T09:05:30;3.65;;;3.38;;
10347;SDS011;5220;43.192;23.284;2023-06-26T09:07:57;3.67;;;3.38;;
10347;SDS011;5220;43.192;23.284;2023-06-26T09:10:26;9.68;;;4.05;;
10347;SDS011;5220;43.192;23.284;2023-06-26T09:12:55;4.70;;;4.30;;
10347;SDS011;5220;43.192;23.284;2023-06-26T09:15:23;4.10;;;3.80;;
10347;SDS011;5220;43.192;23.284;2023-06-26T09:17:50;3.90;;;3.60;;
10347;SDS011;5220;43.192;23.284;2023-06-26T09:20:24;3.72;;;3.40;;
10347;SDS011;5220;43.192;23.284;2023-06-26T09:22:54;3.83;;;3.53;;
10347;SDS011;5220;43.192;23.284;2023-06-26T09:25:21;4.55;;;4.13;;
10347;SDS011;5220;43.192;23.284;2023-06-26T09:27:50;5.18;;;4.00;;
10347;SDS011;5220;43.192;23.284;2023-06-26T09:30:17;4.22;;;3.60;;
10347;SDS011;5220;43.192;23.284;2023-06-26T09:32:45;4.25;;;3.75;;
10347;SDS011;5220;43.192;23.284;2023-06-26T09:35:12;4.43;;;4.03;;
10347;SDS011;5220;43.192;23.284;2023-06-26T09:37:39;5.00;;;3.60;;
10347;SDS011;5220;43.192;23.284;2023-06-26T09:40:07;3.85;;;3.55;;
10347;SDS011;5220;43.192;23.284;2023-06-26T09:42:35;3.92;;;3.53;;
10347;SDS011;5220;43.192;23.284;2023-06-26T09:45:03;4.10;;;3.67;;
10347;SDS011;5220;43.192;23.284;2023-06-26T09:47:31;5.15;;;3.72;;
10347;SDS011;5220;43.192;23.284;2023-06-26T09:50:01;4.18;;;3.83;;
10347;SDS011;5220;43.192;23.284;2023-06-26T09:52:29;3.78;;;3.47;;
10347;SDS011;5220;43.192;23.284;2023-06-26T09:55:09;4.28;;;3.95;;
10347;SDS011;5220;43.192;23.284;2023-06-26T09:57:37;4.10;;;3.67;;
10347;SDS011;5220;43.192;23.284;2023-06-26T10:00:06;4.45;;;3.88;;
10347;SDS011;5220;43.192;23.284;2023-06-26T10:02:34;4.65;;;3.92;;
10347;SDS011;5220;43.192;23.284;2023-06-26T10:05:01;5.47;;;4.25;;
10347;SDS011;5220;43.192;23.284;2023-06-26T10:07:28;6.75;;;4.15;;
10347;SDS011;5220;43.192;23.284;2023-06-26T10:09:55;4.85;;;3.75;;
10347;SDS011;5220;43.192;23.284;2023-06-26T10:12:25;4.82;;;4.15;;
10347;SDS011;5220;43.192;23.284;2023-06-26T10:14:55;18.25;;;6.93;;
10347;SDS011;5220;43.192;23.284;2023-06-26T10:17:25;6.25;;;3.95;;
10347;SDS011;5220;43.192;23.284;2023-06-26T10:19:54;5.53;;;4.05;;
10347;SDS011;5220;43.192;23.284;2023-06-26T10:22:24;9.25;;;3.80;;
10347;SDS011;5220;43.192;23.284;2023-06-26T10:24:54;10.35;;;4.15;;
10347;SDS011;5220;43.192;23.284;2023-06-26T10:27:25;3.92;;;3.58;;
10347;SDS011;5220;43.192;23.284;2023-06-26T10:29:54;4.95;;;3.95;;
10347;SDS011;5220;43.192;23.284;2023-06-26T10:32:23;3.90;;;3.60;;
10347;SDS011;5220;43.192;23.284;2023-06-26T10:34:53;4.28;;;3.80;;
10347;SDS011;5220;43.192;23.284;2023-06-26T10:37:21;5.10;;;3.65;;
10347;SDS011;5220;43.192;23.284;2023-06-26T10:40:07;6.63;;;4.22;;
10347;SDS011;5220;43.192;23.284;2023-06-26T10:42:35;6.40;;;4.00;;
10347;SDS011;5220;43.192;23.284;2023-06-26T10:45:08;4.22;;;3.92;;
10347;SDS011;5220;43.192;23.284;2023-06-26T10:47:39;4.95;;;3.72;;
10347;SDS011;5220;43.192;23.284;2023-06-26T10:50:16;5.20;;;4.68;;
10347;SDS011;5220;43.192;23.284;2023-06-26T10:52:52;4.35;;;3.85;;
10347;SDS011;5220;43.192;23.284;2023-06-26T10:55:34;4.65;;;3.83;;
10347;SDS011;5220;43.192;23.284;2023-06-26T10:58:01;4.30;;;3.90;;
10347;SDS011;5220;43.192;23.284;2023-06-26T11:00:28;4.80;;;4.18;;
10347;SDS011;5220;43.192;23.284;2023-06-26T11:02:56;4.35;;;3.92;;
10347;SDS011;5220;43.192;23.284;2023-06-26T11:05:23;5.00;;;4.35;;
10347;SDS011;5220;43.192;23.284;2023-06-26T11:08:05;4.10;;;3.70;;
10347;SDS011;5220;43.192;23.284;2023-06-26T11:10:48;5.05;;;3.75;;
10347;SDS011;5220;43.192;23.284;2023-06-26T11:13:17;5.78;;;3.70;;
10347;SDS011;5220;43.192;23.284;2023-06-26T11:15:45;4.45;;;3.53;;
10347;SDS011;5220;43.192;23.284;2023-06-26T11:18:13;4.13;;;3.83;;
10347;SDS011;5220;43.192;23.284;2023-06-26T11:20:40;6.40;;;3.92;;
10347;SDS011;5220;43.192;23.284;2023-06-26T11:23:07;3.75;;;3.40;;
10347;SDS011;5220;43.192;23.284;2023-06-26T11:25:35;4.40;;;4.10;;
10347;SDS011;5220;43.192;23.284;2023-06-26T11:28:02;4.95;;;3.33;;
10347;SDS011;5220;43.192;23.284;2023-06-26T11:30:30;6.85;;;3.95;;
10347;SDS011;5220;43.192;23.284;2023-06-26T11:33:03;4.97;;;4.60;;
10347;SDS011;5220;43.192;23.284;2023-06-26T11:35:33;6.13;;;3.60;;
10347;SDS011;5220;43.192;23.284;2023-06-26T11:38:01;4.57;;;4.18;;
10347;SDS011;5220;43.192;23.284;2023-06-26T11:40:30;3.70;;;3.40;;
10347;SDS011;5220;43.192;23.284;2023-06-26T11:42:57;7.07;;;3.75;;
10347;SDS011;5220;43.192;23.284;2023-06-26T11:45:27;4.78;;;4.13;;
10347;SDS011;5220;43.192;23.284;2023-06-26T11:47:55;6.10;;;3.72;;
10347;SDS011;5220;43.192;23.284;2023-06-26T11:50:22;6.95;;;3.80;;
10347;SDS011;5220;43.192;23.284;2023-06-26T11:52:54;5.53;;;3.90;;
10347;SDS011;5220;43.192;23.284;2023-06-26T11:55:21;3.88;;;3.47;;
10347;SDS011;5220;43.192;23.284;2023-06-26T11:57:48;6.95;;;3.67;;
10347;SDS011;5220;43.192;23.284;2023-06-26T12:00:16;4.80;;;3.30;;
10347;SDS011;5220;43.192;23.284;2023-06-26T12:02:43;11.30;;;4.32;;
10347;SDS011;5220;43.192;23.284;2023-06-26T12:05:11;4.70;;;3.65;;
10347;SDS011;5220;43.192;23.284;2023-06-26T12:07:38;3.75;;;3.25;;
10347;SDS011;5220;43.192;23.284;2023-06-26T12:10:07;6.00;;;3.75;;
10347;SDS011;5220;43.192;23.284;2023-06-26T12:12:36;3.90;;;3.50;;
10347;SDS011;5220;43.192;23.284;2023-06-26T12:15:05;5.18;;;3.60;;
10347;SDS011;5220;43.192;23.284;2023-06-26T12:17:36;4.10;;;3.70;;
10347;SDS011;5220;43.192;23.284;2023-06-26T12:20:04;3.40;;;3.10;;
10347;SDS011;5220;43.192;23.284;2023-06-26T12:22:35;3.72;;;3.35;;
10347;SDS011;5220;43.192;23.284;2023-06-26T12:25:02;3.95;;;3.63;;
10347;SDS011;5220;43.192;23.284;2023-06-26T12:27:30;4.07;;;3.22;;
10347;SDS011;5220;43.192;23.284;2023-06-26T12:29:57;4.35;;;3.55;;
10347;SDS011;5220;43.192;23.284;2023-06-26T12:32:24;3.40;;;3.10;;
10347;SDS011;5220;43.192;23.284;2023-06-26T12:34:51;6.65;;;3.85;;
10347;SDS011;5220;43.192;23.284;2023-06-26T12:37:19;4.88;;;3.28;;
10347;SDS011;5220;43.192;23.284;2023-06-26T12:39:46;3.97;;;3.55;;
10347;SDS011;5220;43.192;23.284;2023-06-26T12:42:14;4.03;;;3.63;;
10347;SDS011;5220;43.192;23.284;2023-06-26T12:44:43;5.57;;;3.88;;
10347;SDS011;5220;43.192;23.284;2023-06-26T12:47:10;3.90;;;3.50;;
10347;SDS011;5220;43.192;23.284;2023-06-26T12:49:38;4.13;;;3.67;;
10347;SDS011;5220;43.192;23.284;2023-06-26T12:52:08;4.53;;;3.90;;
10347;SDS011;5220;43.192;23.284;2023-06-26T12:54:36;5.10;;;3.60;;
10347;SDS011;5220;43.192;23.284;2023-06-26T12:57:03;6.15;;;3.85;;
10347;SDS011;5220;43.192;23.284;2023-06-26T12:59:30;6.20;;;3.50;;
10347;SDS011;5220;43.192;23.284;2023-06-26T13:01:58;3.45;;;3.20;;
10347;SDS011;5220;43.192;23.284;2023-06-26T13:04:26;5.53;;;4.10;;
10347;SDS011;5220;43.192;23.284;2023-06-26T13:06:53;3.60;;;3.30;;
10347;SDS011;5220;43.192;23.284;2023-06-26T13:09:20;4.63;;;3.90;;
10347;SDS011;5220;43.192;23.284;2023-06-26T13:11:47;3.90;;;3.60;;
10347;SDS011;5220;43.192;23.284;2023-06-26T13:14:14;9.05;;;4.40;;
10347;SDS011;5220;43.192;23.284;2023-06-26T13:16:41;4.10;;;3.70;;
10347;SDS011;5220;43.192;23.284;2023-06-26T13:19:09;7.15;;;3.70;;
10347;SDS011;5220;43.192;23.284;2023-06-26T13:21:36;5.45;;;3.42;;
10347;SDS011;5220;43.192;23.284;2023-06-26T13:24:03;3.63;;;3.33;;
10347;SDS011;5220;43.192;23.284;2023-06-26T13:26:30;5.65;;;3.72;;
10347;SDS011;5220;43.192;23.284;2023-06-26T13:28:58;3.80;;;3.50;;
10347;SDS011;5220;43.192;23.284;2023-06-26T13:31:25;4.20;;;3.70;;
10347;SDS011;5220;43.192;23.284;2023-06-26T13:33:51;3.80;;;3.45;;
10347;SDS011;5220;43.192;23.284;2023-06-26T13:36:20;5.15;;;3.88;;
10347;SDS011;5220;43.192;23.284;2023-06-26T13:38:47;4.38;;;3.42;;
10347;SDS011;5220;43.192;23.284;2023-06-26T13:41:20;4.00;;;3.60;;
10347;SDS011;5220;43.192;23.284;2023-06-26T13:43:47;4.82;;;3.47;;
10347;SDS011;5220;43.192;23.284;2023-06-26T13:46:13;4.10;;;3.80;;
10347;SDS011;5220;43.192;23.284;2023-06-26T13:48:41;5.82;;;3.80;;
10347;SDS011;5220;43.192;23.284;2023-06-26T13:51:08;7.07;;;3.90;;
10347;SDS011;5220;43.192;23.284;2023-06-26T13:53:36;27.67;;;6.13;;
10347;SDS011;5220;43.192;23.284;2023-06-26T13:56:03;4.75;;;3.67;;
10347;SDS011;5220;43.192;23.284;2023-06-26T13:58:30;49.63;;;8.63;;
10347;SDS011;5220;43.192;23.284;2023-06-26T14:00:58;3.75;;;3.45;;
10347;SDS011;5220;43.192;23.284;2023-06-26T14:03:26;4.13;;;3.72;;
10347;SDS011;5220;43.192;23.284;2023-06-26T14:05:53;5.55;;;3.45;;
10347;SDS011;5220;43.192;23.284;2023-06-26T14:08:20;5.93;;;4.00;;
10347;SDS011;5220;43.192;23.284;2023-06-26T14:10:48;4.82;;;3.78;;
10347;SDS011;5220;43.192;23.284;2023-06-26T14:13:15;6.45;;;4.10;;
10347;SDS011;5220;43.192;23.284;2023-06-26T14:15:42;3.75;;;3.33;;
10347;SDS011;5220;43.192;23.284;2023-06-26T14:18:08;4.72;;;3.65;;
10347;SDS011;5220;43.192;23.284;2023-06-26T14:20:35;5.28;;;3.85;;
10347;SDS011;5220;43.192;23.284;2023-06-26T14:23:02;4.05;;;3.47;;
10347;SDS011;5220;43.192;23.284;2023-06-26T14:25:29;6.22;;;3.78;;
10347;SDS011;5220;43.192;23.284;2023-06-26T14:27:58;6.25;;;4.20;;
10347;SDS011;5220;43.192;23.284;2023-06-26T14:30:24;4.00;;;3.28;;
10347;SDS011;5220;43.192;23.284;2023-06-26T14:32:51;3.92;;;3.63;;
10347;SDS011;5220;43.192;23.284;2023-06-26T14:35:18;4.25;;;3.85;;
10347;SDS011;5220;43.192;23.284;2023-06-26T14:37:45;4.15;;;3.50;;
10347;SDS011;5220;43.192;23.284;2023-06-26T14:40:12;4.22;;;3.83;;
10347;SDS011;5220;43.192;23.284;2023-06-26T14:42:39;5.00;;;3.85;;
10347;SDS011;5220;43.192;23.284;2023-06-26T14:45:10;3.95;;;3.60;;
10347;SDS011;5220;43.192;23.284;2023-06-26T14:47:36;4.38;;;3.80;;